world map with DGE marked

DGE - Airport

This information may not be accurate or current and is not valid for navigation or flight planning. No warranty of fitness for any purpose is made or implied.

flag of New South Walesflag of Australia

Donate via PayPal

Additional information is available on the NEW Great Circle Mapper

Location
City:  Mudgee, New South Wales, Australia
ICAO / IATA:YMDG / DGE

Details
Type:Airport (Aerodrome, Airfield)
Latitude:32°33'45"S (-32.562499)
Longitude:149°36'40"E (149.611111)
Datum:WGS 1984
Elevation:1545 ft (471 m)
Runways:2
Longest:5705 × 98 ft (1739 × 30 m)

Time
Timezone:UTC+10 (DST+13)
Local Time:

Weather
METAR:YMDG  041400Z AUTO 18007KT 9999 // NCD 24/17 Q1013

Related Locations
Nearby:
Farthest:SMA: 12012 mi / 19331 km
Santa Maria, 20, PT

Find:

   beyond  
but within

Other Information
Maps:
Sources:

  


 


Great Circle Mapper   Great Circle Mapper
Great Circle Mapper FAQ   Great Circle Mapper FAQ
  Karl's Home Page
KLSē   KLSē Home
   GC on Facebook
Airlines of the World   Airlines of the World
Donate via PayPal


Copyright © 2004-2019, Karl L. Swartz. All rights reserved.
All trademarks mentioned herein belong to their respective owners.

Please see credits for attribution and copyright information.

Karl Swartz <karl@kls2.com>
  Powered by FreeBSD
Valid HTML 4.01!
Labeled with ICRA
hCard Microformat
Geo Microformat